createdAt,value
2022-08-18T00:00:38.429Z,6.40
2022-08-18T00:03:57.461Z,6.13
2022-08-18T00:06:53.048Z,6.53
2022-08-18T00:09:50.714Z,5.78
2022-08-18T00:12:47.613Z,5.72
2022-08-18T00:15:49.251Z,6.18
2022-08-18T00:18:46.370Z,6.25
2022-08-18T00:21:43.220Z,6.47
2022-08-18T00:24:40.100Z,5.65
2022-08-18T00:27:45.936Z,5.93
2022-08-18T00:30:42.836Z,5.75
2022-08-18T00:33:39.675Z,6.30
2022-08-18T00:36:36.634Z,5.90
2022-08-18T00:39:37.176Z,5.45
2022-08-18T00:42:46.232Z,6.47
2022-08-18T00:45:43.779Z,5.93
2022-08-18T00:48:40.877Z,5.95
2022-08-18T00:51:51.185Z,6.10
2022-08-18T00:54:49.810Z,5.95
2022-08-18T00:57:50.809Z,5.97
2022-08-18T01:00:51.178Z,5.80
2022-08-18T01:03:53.026Z,5.57
2022-08-18T01:07:00.668Z,5.78
2022-08-18T01:10:01.385Z,5.72
2022-08-18T01:15:56.294Z,5.85
2022-08-18T01:19:12.410Z,5.97
2022-08-18T01:22:43.592Z,5.57
2022-08-18T01:25:59.606Z,5.90
2022-08-18T01:29:07.057Z,5.60
2022-08-18T01:32:04.177Z,5.80
2022-08-18T01:35:01.071Z,5.88
2022-08-18T01:37:57.907Z,6.13
2022-08-18T01:41:22.243Z,6.53
2022-08-18T01:44:11.792Z,5.85
2022-08-18T01:47:11.570Z,5.40
2022-08-18T01:50:11.165Z,5.53
2022-08-18T01:53:10.654Z,6.00
2022-08-18T01:56:08.673Z,5.65
2022-08-18T01:59:07.462Z,5.18
2022-08-18T02:02:05.072Z,5.95
2022-08-18T02:05:12.081Z,6.25
2022-08-18T02:08:10.680Z,5.60
2022-08-18T02:11:08.309Z,6.53
2022-08-18T02:14:06.066Z,5.82
2022-08-18T02:17:05.298Z,5.97
2022-08-18T02:20:02.182Z,5.88
2022-08-18T02:23:02.658Z,5.18
2022-08-18T02:25:59.569Z,5.88
2022-08-18T02:28:56.829Z,5.93
2022-08-18T02:31:53.888Z,6.03
2022-08-18T02:34:50.728Z,5.53
2022-08-18T02:37:48.149Z,5.50
2022-08-18T02:40:46.506Z,5.65
2022-08-18T02:43:43.638Z,5.82
2022-08-18T02:46:40.521Z,5.10
2022-08-18T02:49:37.370Z,5.22
2022-08-18T02:52:35.532Z,4.80
2022-08-18T02:55:32.454Z,5.10
2022-08-18T02:58:33.575Z,5.05
2022-08-18T03:01:38.473Z,6.07
2022-08-18T03:04:36.337Z,6.18
2022-08-18T03:07:33.438Z,5.57
2022-08-18T03:10:32.350Z,5.65
2022-08-18T03:13:30.803Z,5.80
2022-08-18T03:16:32.712Z,5.93
2022-08-18T03:19:30.110Z,5.60
2022-08-18T03:22:28.083Z,5.70
2022-08-18T03:25:26.489Z,5.53
2022-08-18T03:28:23.461Z,6.28
2022-08-18T03:31:27.950Z,5.35
2022-08-18T03:34:25.064Z,5.78
2022-08-18T03:37:21.991Z,5.70
2022-08-18T03:40:19.086Z,6.18
2022-08-18T03:43:49.617Z,6.28
2022-08-18T03:46:33.428Z,5.90
2022-08-18T03:49:31.279Z,6.75
2022-08-18T03:52:28.146Z,6.45
2022-08-18T03:55:29.241Z,6.50
2022-08-18T03:58:26.412Z,6.00
2022-08-18T04:01:28.478Z,6.15
2022-08-18T04:04:28.827Z,5.95
2022-08-18T04:07:25.684Z,6.22
2022-08-18T04:10:26.570Z,6.65
2022-08-18T04:13:24.321Z,6.22
2022-08-18T04:16:21.368Z,7.00
2022-08-18T04:19:26.148Z,6.15
2022-08-18T04:22:25.596Z,6.65
2022-08-18T04:25:22.440Z,6.95
2022-08-18T04:28:19.293Z,6.88
2022-08-18T04:31:16.339Z,6.85
2022-08-18T04:34:13.835Z,6.53
2022-08-18T04:37:10.938Z,7.18
2022-08-18T04:40:08.885Z,6.35
2022-08-18T04:43:05.791Z,6.30
2022-08-18T04:46:03.166Z,7.07
2022-08-18T04:49:00.480Z,7.30
2022-08-18T04:52:26.899Z,5.88
2022-08-18T04:55:34.992Z,6.85
2022-08-18T04:58:31.897Z,7.38
2022-08-18T05:01:35.356Z,7.30
2022-08-18T05:04:32.252Z,7.10
2022-08-18T05:07:29.180Z,7.95
2022-08-18T05:10:26.033Z,6.70
2022-08-18T05:13:23.518Z,7.57
2022-08-18T05:16:27.443Z,8.15
2022-08-18T05:19:26.825Z,6.80
2022-08-18T05:22:28.413Z,7.43
2022-08-18T05:25:28.451Z,7.80
2022-08-18T05:28:26.189Z,7.45
2022-08-18T05:31:26.078Z,7.15
2022-08-18T05:34:23.002Z,7.80
2022-08-18T05:37:35.972Z,7.55
2022-08-18T05:40:34.621Z,7.35
2022-08-18T05:43:32.022Z,7.68
2022-08-18T05:46:56.009Z,7.07
2022-08-18T05:49:55.799Z,7.13
2022-08-18T05:52:58.308Z,7.23
2022-08-18T05:56:23.750Z,7.35
2022-08-18T05:59:34.211Z,6.90
2022-08-18T06:02:51.140Z,7.30
2022-08-18T06:06:01.351Z,6.82
2022-08-18T06:09:17.525Z,7.18
2022-08-18T06:12:46.601Z,7.45
2022-08-18T06:16:05.347Z,7.72
2022-08-18T06:19:28.107Z,7.85
2022-08-18T06:22:52.137Z,7.97
2022-08-18T06:26:19.791Z,7.63
2022-08-18T06:30:12.562Z,7.65
2022-08-18T06:33:29.699Z,7.35
2022-08-18T06:37:01.376Z,7.68
2022-08-18T06:39:58.540Z,7.18
2022-08-18T06:42:55.891Z,7.05
2022-08-18T06:45:56.767Z,8.35
2022-08-18T06:49:04.407Z,9.02
2022-08-18T06:52:34.127Z,8.70
2022-08-18T06:55:37.791Z,8.55
2022-08-18T06:58:34.686Z,7.65
2022-08-18T07:01:33.257Z,7.78
2022-08-18T07:04:38.065Z,7.82
2022-08-18T07:07:39.414Z,8.00
2022-08-18T07:10:52.171Z,8.27
2022-08-18T07:14:14.809Z,8.25
2022-08-18T07:17:22.281Z,7.50
2022-08-18T07:20:49.739Z,8.32
2022-08-18T07:24:25.286Z,8.30
2022-08-18T07:27:49.073Z,8.52
2022-08-18T07:31:06.433Z,8.50
2022-08-18T07:34:38.886Z,8.75
2022-08-18T07:37:58.843Z,9.10
2022-08-18T07:41:26.078Z,9.17
2022-08-18T07:44:48.790Z,9.30
2022-08-18T07:48:37.542Z,9.63
2022-08-18T07:51:43.803Z,8.57
2022-08-18T07:54:56.134Z,10.40
2022-08-18T07:58:11.879Z,10.80
2022-08-18T08:01:41.199Z,9.20
2022-08-18T08:04:49.413Z,9.60
2022-08-18T08:08:02.126Z,9.80
2022-08-18T08:11:20.384Z,9.75
2022-08-18T08:14:31.739Z,11.02
2022-08-18T08:17:58.188Z,11.32
2022-08-18T08:21:14.408Z,10.38
2022-08-18T08:24:27.129Z,11.00
2022-08-18T08:27:45.728Z,13.00
2022-08-18T08:31:33.422Z,12.55
2022-08-18T08:35:07.132Z,12.23
2022-08-18T08:38:39.184Z,12.35
2022-08-18T08:42:28.935Z,11.18
2022-08-18T08:45:33.871Z,12.52
2022-08-18T08:48:35.670Z,12.63
2022-08-18T08:51:44.784Z,12.60
2022-08-18T08:54:59.250Z,9.93
2022-08-18T08:58:21.914Z,10.07
2022-08-18T09:01:37.977Z,11.43
2022-08-18T09:05:13.737Z,11.75
2022-08-18T09:08:43.920Z,12.50
2022-08-18T09:12:02.952Z,11.63
2022-08-18T09:15:35.484Z,12.23
2022-08-18T09:19:02.890Z,11.75
2022-08-18T09:22:52.517Z,13.75
2022-08-18T09:25:58.526Z,11.70
2022-08-18T09:29:13.238Z,11.95
2022-08-18T09:32:18.981Z,15.32
2022-08-18T09:35:43.559Z,12.68
2022-08-18T09:39:10.701Z,13.02
2022-08-18T09:42:29.912Z,13.93
2022-08-18T09:45:33.379Z,12.25
2022-08-18T09:48:43.064Z,9.73
2022-08-18T09:51:41.186Z,9.80
2022-08-18T09:55:14.635Z,9.20
2022-08-18T09:58:50.462Z,11.02
2022-08-18T10:01:52.424Z,8.27
2022-08-18T10:04:51.365Z,8.00
2022-08-18T10:08:08.222Z,6.90
2022-08-18T10:11:58.121Z,6.93
2022-08-18T10:15:33.453Z,5.40
2022-08-18T10:18:50.549Z,6.45
2022-08-18T10:22:06.390Z,6.47
2022-08-18T10:25:23.014Z,5.20
2022-08-18T10:28:58.745Z,5.28
2022-08-18T10:32:05.220Z,5.28
2022-08-18T10:35:02.291Z,5.90
2022-08-18T10:38:00.637Z,5.57
2022-08-18T10:41:22.947Z,6.57
2022-08-18T10:44:29.146Z,5.43
2022-08-18T10:51:08.859Z,6.22
2022-08-18T10:54:29.406Z,6.43
2022-08-18T11:00:48.424Z,5.50
2022-08-18T11:04:34.019Z,6.03
2022-08-18T11:07:35.617Z,5.28
2022-08-18T11:11:06.611Z,7.07
2022-08-18T11:14:31.830Z,6.82
2022-08-18T11:18:03.579Z,7.15
2022-08-18T11:24:55.099Z,6.63
2022-08-18T11:27:52.171Z,6.97
2022-08-18T11:30:54.915Z,6.93
2022-08-18T11:33:51.846Z,6.50
2022-08-18T11:37:04.997Z,7.00
2022-08-18T11:43:47.367Z,6.18
2022-08-18T11:46:47.549Z,5.53
2022-08-18T11:50:13.245Z,6.43
2022-08-18T11:53:58.043Z,5.93
2022-08-18T12:04:31.782Z,6.00
2022-08-18T12:07:35.297Z,6.07
2022-08-18T12:10:32.442Z,6.18
2022-08-18T12:13:29.708Z,6.07
2022-08-18T12:16:40.189Z,5.15
2022-08-18T12:19:43.642Z,4.43
2022-08-18T12:25:43.340Z,5.40
2022-08-18T12:28:40.347Z,6.00
2022-08-18T12:31:42.465Z,5.80
2022-08-18T12:34:45.893Z,6.10
2022-08-18T12:38:11.148Z,5.45
2022-08-18T12:41:03.075Z,5.78
2022-08-18T12:44:00.105Z,6.00
2022-08-18T12:46:57.470Z,5.78
2022-08-18T12:49:56.801Z,6.43
2022-08-18T12:52:53.905Z,6.70
2022-08-18T12:55:52.859Z,7.03
2022-08-18T12:58:50.664Z,7.45
2022-08-18T13:01:47.552Z,7.30
2022-08-18T13:04:44.898Z,7.30
2022-08-18T13:07:44.298Z,9.07
2022-08-18T13:10:45.441Z,7.97
2022-08-18T13:13:44.382Z,9.40
2022-08-18T13:16:53.740Z,8.60
2022-08-18T13:19:51.959Z,7.07
2022-08-18T13:22:52.533Z,7.25
2022-08-18T13:25:50.292Z,8.43
2022-08-18T13:28:50.862Z,8.68
2022-08-18T13:31:58.172Z,7.70
2022-08-18T13:34:56.539Z,8.07
2022-08-18T13:37:55.265Z,8.35
2022-08-18T13:40:55.717Z,9.20
2022-08-18T13:43:52.583Z,8.83
2022-08-18T13:46:52.132Z,9.20
2022-08-18T13:49:58.206Z,9.67
2022-08-18T13:52:57.231Z,8.65
2022-08-18T13:55:57.376Z,8.65
2022-08-18T13:58:55.438Z,10.88
2022-08-18T14:01:53.328Z,10.63
2022-08-18T14:04:51.855Z,11.13
2022-08-18T14:07:49.174Z,10.52
2022-08-18T14:10:53.068Z,10.90
2022-08-18T14:13:49.982Z,8.23
2022-08-18T14:16:47.765Z,9.38
2022-08-18T14:20:03.121Z,8.05
2022-08-18T14:23:22.015Z,10.15
2022-08-18T14:26:40.392Z,9.38
2022-08-18T14:29:46.005Z,9.48
2022-08-18T14:32:51.314Z,10.40
2022-08-18T14:36:06.335Z,10.45
2022-08-18T14:39:06.054Z,10.85
2022-08-18T14:42:05.700Z,8.48
2022-08-18T14:45:18.032Z,10.05
2022-08-18T14:48:27.405Z,10.90
2022-08-18T14:51:27.211Z,11.00
2022-08-18T14:54:28.272Z,12.88
2022-08-18T14:57:25.807Z,12.02
2022-08-18T15:00:22.920Z,11.55
2022-08-18T15:03:28.228Z,10.63
2022-08-18T15:06:28.661Z,10.45
2022-08-18T15:09:27.261Z,9.90
2022-08-18T15:12:24.934Z,12.27
2022-08-18T15:15:22.843Z,11.85
2022-08-18T15:18:22.820Z,10.63
2022-08-18T15:21:38.987Z,11.38
2022-08-18T15:24:59.685Z,11.23
2022-08-18T15:27:58.113Z,9.63
2022-08-18T15:34:12.713Z,11.27
2022-08-18T15:37:10.173Z,11.15
2022-08-18T15:40:30.349Z,9.55
2022-08-18T15:43:32.704Z,9.07
2022-08-18T15:46:34.836Z,11.70
2022-08-18T15:49:33.801Z,9.65
2022-08-18T15:52:30.732Z,11.55
2022-08-18T15:55:32.989Z,11.90
2022-08-18T15:58:32.847Z,11.70
2022-08-18T16:01:33.015Z,11.27
2022-08-18T16:07:40.074Z,8.93
2022-08-18T16:10:41.891Z,10.27
2022-08-18T16:13:39.946Z,9.68
2022-08-18T16:16:37.131Z,10.18
2022-08-18T16:19:34.025Z,9.15
2022-08-18T16:22:32.974Z,10.18
2022-08-18T16:25:29.844Z,10.88
2022-08-18T16:28:34.559Z,7.80
2022-08-18T16:31:32.284Z,8.90
2022-08-18T16:34:30.937Z,10.40
2022-08-18T16:37:28.097Z,10.55
2022-08-18T16:40:28.020Z,11.23
2022-08-18T16:43:27.172Z,11.45
2022-08-18T16:46:27.175Z,10.98
2022-08-18T16:49:24.031Z,10.60
2022-08-18T16:52:21.168Z,10.60
2022-08-18T16:55:18.140Z,10.38
2022-08-18T16:58:33.873Z,10.88
2022-08-18T17:01:49.692Z,10.88
2022-08-18T17:04:46.582Z,12.27
2022-08-18T17:07:43.672Z,11.57
2022-08-18T17:10:41.428Z,10.77
2022-08-18T17:13:40.127Z,11.25
2022-08-18T17:16:38.574Z,12.50
2022-08-18T17:19:35.503Z,11.90
2022-08-18T17:22:32.340Z,12.00
2022-08-18T17:25:30.860Z,10.10
2022-08-18T17:28:45.670Z,12.20
2022-08-18T17:31:56.630Z,11.27
2022-08-18T17:35:04.493Z,11.15
2022-08-18T17:38:29.793Z,10.80
2022-08-18T17:41:27.918Z,10.07
2022-08-18T17:44:31.245Z,11.45
2022-08-18T17:47:54.295Z,10.68
2022-08-18T17:51:32.507Z,12.00
2022-08-18T17:54:42.050Z,10.07
2022-08-18T17:57:58.651Z,8.87
2022-08-18T18:00:55.827Z,10.82
2022-08-18T18:03:53.902Z,11.45
2022-08-18T18:06:52.787Z,11.85
2022-08-18T18:10:26.318Z,11.68
2022-08-18T18:13:28.609Z,11.77
2022-08-18T18:16:29.569Z,11.25
2022-08-18T18:19:30.631Z,10.13
2022-08-18T18:22:29.751Z,11.27
2022-08-18T18:25:34.483Z,11.23
2022-08-18T18:28:35.953Z,11.50
2022-08-18T18:31:33.048Z,11.68
2022-08-18T18:34:39.312Z,11.93
2022-08-18T18:38:23.099Z,11.55
2022-08-18T18:41:27.837Z,12.10
2022-08-18T18:44:30.769Z,12.00
2022-08-18T18:47:57.676Z,11.80
2022-08-18T18:51:11.835Z,12.15
2022-08-18T18:54:49.796Z,12.30
2022-08-18T18:58:18.438Z,11.35
2022-08-18T19:01:39.102Z,10.05
2022-08-18T19:04:56.654Z,10.23
2022-08-18T19:08:12.806Z,11.63
2022-08-18T19:11:33.168Z,12.68
2022-08-18T19:14:39.355Z,12.65
2022-08-18T19:17:44.730Z,12.80
2022-08-18T19:22:02.201Z,13.20
2022-08-18T19:24:21.781Z,12.40
2022-08-18T19:27:42.827Z,12.18
2022-08-18T19:30:44.877Z,11.98
2022-08-18T19:33:50.796Z,13.35
2022-08-18T19:37:12.387Z,14.55
2022-08-18T19:40:24.068Z,16.92
2022-08-18T19:43:51.932Z,13.27
2022-08-18T19:46:54.389Z,15.80
2022-08-18T19:50:31.499Z,17.50
2022-08-18T19:54:13.294Z,17.30
2022-08-18T19:57:49.812Z,17.20
2022-08-18T20:00:49.532Z,17.70
2022-08-18T20:04:11.096Z,17.37
2022-08-18T20:07:47.185Z,18.52
2022-08-18T20:11:15.418Z,14.30
2022-08-18T20:14:16.798Z,18.33
2022-08-18T20:17:16.894Z,17.85
2022-08-18T20:20:17.551Z,20.07
2022-08-18T20:23:37.633Z,17.27
2022-08-18T20:26:40.037Z,18.00
2022-08-18T20:29:37.106Z,18.45
2022-08-18T20:32:35.684Z,16.27
2022-08-18T20:35:57.111Z,18.23
2022-08-18T20:38:58.190Z,15.43
2022-08-18T20:41:55.859Z,16.35
2022-08-18T20:44:59.414Z,18.23
2022-08-18T20:48:16.316Z,16.63
2022-08-18T20:51:19.788Z,18.20
2022-08-18T20:55:03.045Z,17.00
2022-08-18T20:58:20.601Z,18.33
2022-08-18T21:01:18.187Z,17.48
2022-08-18T21:04:15.067Z,16.38
2022-08-18T21:07:37.860Z,18.50
2022-08-18T21:10:34.931Z,19.38
2022-08-18T21:13:42.429Z,18.70
2022-08-18T21:16:45.493Z,19.90
2022-08-18T21:19:43.370Z,17.92
2022-08-18T21:22:44.916Z,22.02
2022-08-18T21:25:55.731Z,20.85
2022-08-18T21:29:14.445Z,20.83
2022-08-18T21:32:37.009Z,20.10
2022-08-18T21:35:38.070Z,20.73
2022-08-18T21:38:36.350Z,21.20
2022-08-18T21:41:40.102Z,20.83
2022-08-18T21:44:44.384Z,19.00
2022-08-18T21:48:10.893Z,19.08
2022-08-18T21:51:08.311Z,18.90
2022-08-18T21:54:05.431Z,18.92
2022-08-18T21:57:26.720Z,18.70
2022-08-18T22:00:42.886Z,20.15
2022-08-18T22:04:24.572Z,17.20
2022-08-18T22:07:34.546Z,16.98
2022-08-18T22:10:51.282Z,18.58
2022-08-18T22:14:00.483Z,18.20
2022-08-18T22:17:43.233Z,18.20
2022-08-18T22:20:52.592Z,17.70
2022-08-18T22:24:10.572Z,17.15
2022-08-18T22:27:19.548Z,16.63
2022-08-18T22:30:16.484Z,16.25
2022-08-18T22:33:13.335Z,15.20
2022-08-18T22:36:15.204Z,16.17
2022-08-18T22:39:18.151Z,15.95
2022-08-18T22:42:17.878Z,15.75
2022-08-18T22:45:14.768Z,14.70
2022-08-18T22:48:11.632Z,15.85
2022-08-18T22:51:09.013Z,13.75
2022-08-18T22:54:09.873Z,14.82
2022-08-18T22:57:06.729Z,15.20
2022-08-18T23:00:12.815Z,14.38
2022-08-18T23:03:09.793Z,14.48
2022-08-18T23:06:08.917Z,15.15
2022-08-18T23:09:06.108Z,13.65
2022-08-18T23:12:13.539Z,14.52
2022-08-18T23:15:11.550Z,14.55
2022-08-18T23:18:08.408Z,14.35
2022-08-18T23:21:05.477Z,15.35
2022-08-18T23:24:04.840Z,14.52
2022-08-18T23:27:01.726Z,14.40
2022-08-18T23:29:59.586Z,14.75
2022-08-18T23:32:56.406Z,13.20
2022-08-18T23:35:53.799Z,14.98
2022-08-18T23:38:50.628Z,14.15
2022-08-18T23:41:47.878Z,12.20
2022-08-18T23:44:45.775Z,14.60
2022-08-18T23:47:43.393Z,13.88
2022-08-18T23:50:43.351Z,14.23
2022-08-18T23:53:40.494Z,16.10
2022-08-18T23:56:38.006Z,14.55
2022-08-18T23:59:34.881Z,14.98
